Terminal Aerodrome Forecast
Issued by NWS

Home | Current Version | Previous Version | Text Only | Print | Product List | Glossary Off
Versions: 1 2 3 4 5 6 7 8 9 10 11 12 13 14 15 16 17

915
FTUS43 KIWX 021720
TAFSBN
TAF
KSBN 021720Z 0218/0318 04008KT P6SM OVC015
     FM022000 02008KT P6SM BKN025
     FM030100 VRB03KT P6SM SCT050
     FM031400 30008KT P6SM SCT050=

USA.gov is the U.S. government's official web portal to all federal, state and local government web resources and services.